sensor_id;sensor_type;location;lat;lon;timestamp;pressure;altitude;pressure_sealevel;temperature;humidity
67740;BME280;54536;50.090;14.420;2023-04-08T00:00:58;99589.88;;;9.23;59.56
67740;BME280;54536;50.090;14.420;2023-04-08T00:03:25;99590.97;;;9.21;60.27
67740;BME280;54536;50.090;14.420;2023-04-08T00:05:51;99585.38;;;9.14;60.45
67740;BME280;54536;50.090;14.420;2023-04-08T00:08:17;99585.13;;;9.17;60.26
67740;BME280;54536;50.090;14.420;2023-04-08T00:10:43;99585.94;;;9.18;60.58
67740;BME280;54536;50.090;14.420;2023-04-08T00:13:09;99585.84;;;9.08;59.88
67740;BME280;54536;50.090;14.420;2023-04-08T00:15:36;99585.59;;;9.11;60.48
67740;BME280;54536;50.090;14.420;2023-04-08T00:18:02;99579.78;;;9.07;60.35
67740;BME280;54536;50.090;14.420;2023-04-08T00:20:28;99583.81;;;9.23;60.18
67740;BME280;54536;50.090;14.420;2023-04-08T00:22:54;99585.84;;;9.08;60.38
67740;BME280;54536;50.090;14.420;2023-04-08T00:25:20;99586.72;;;8.97;61.16
67740;BME280;54536;50.090;14.420;2023-04-08T00:27:47;99587.88;;;9.04;60.95
67740;BME280;54536;50.090;14.420;2023-04-08T00:30:13;99583.81;;;9.11;61.29
67740;BME280;54536;50.090;14.420;2023-04-08T00:32:40;99581.19;;;9.11;60.98
67740;BME280;54536;50.090;14.420;2023-04-08T00:35:06;99589.31;;;9.08;60.79
67740;BME280;54536;50.090;14.420;2023-04-08T00:37:33;99593.72;;;9.08;61.17
67740;BME280;54536;50.090;14.420;2023-04-08T00:39:59;99596.25;;;9.09;60.87
67740;BME280;54536;50.090;14.420;2023-04-08T00:42:26;99591.81;;;9.10;61.60
67740;BME280;54536;50.090;14.420;2023-04-08T00:44:52;99598.13;;;9.07;61.04
67740;BME280;54536;50.090;14.420;2023-04-08T00:47:18;99588.72;;;9.16;61.17
67740;BME280;54536;50.090;14.420;2023-04-08T00:49:44;99599.41;;;9.24;60.55
67740;BME280;54536;50.090;14.420;2023-04-08T00:52:11;99594.06;;;9.14;60.63
67740;BME280;54536;50.090;14.420;2023-04-08T00:54:37;99592.41;;;9.13;60.30
67740;BME280;54536;50.090;14.420;2023-04-08T00:57:05;99590.13;;;9.20;59.79
67740;BME280;54536;50.090;14.420;2023-04-08T00:59:32;99582.75;;;9.14;59.87
67740;BME280;54536;50.090;14.420;2023-04-08T01:02:30;99582.75;;;9.14;60.24
67740;BME280;54536;50.090;14.420;2023-04-08T01:05:08;99585.84;;;9.19;60.63
67740;BME280;54536;50.090;14.420;2023-04-08T01:07:46;99588.69;;;9.27;59.81
67740;BME280;54536;50.090;14.420;2023-04-08T01:10:29;99576.41;;;9.17;60.29
67740;BME280;54536;50.090;14.420;2023-04-08T01:12:58;99578.72;;;8.99;61.58
67740;BME280;54536;50.090;14.420;2023-04-08T01:15:28;99578.22;;;9.05;60.57
67740;BME280;54536;50.090;14.420;2023-04-08T01:17:58;99581.19;;;9.11;61.12
67740;BME280;54536;50.090;14.420;2023-04-08T01:20:25;99579.41;;;9.12;60.17
67740;BME280;54536;50.090;14.420;2023-04-08T01:25:38;99579.66;;;8.98;60.30
67740;BME280;54536;50.090;14.420;2023-04-08T01:28:09;99578.97;;;8.84;60.75
67740;BME280;54536;50.090;14.420;2023-04-08T01:30:38;99582.53;;;8.95;60.68
67740;BME280;54536;50.090;14.420;2023-04-08T01:33:06;99584.81;;;8.99;60.58
67740;BME280;54536;50.090;14.420;2023-04-08T01:35:33;99588.97;;;9.02;60.58
67740;BME280;54536;50.090;14.420;2023-04-08T01:38:02;99590.66;;;8.91;60.33
67740;BME280;54536;50.090;14.420;2023-04-08T01:40:32;99589.59;;;8.83;60.93
67740;BME280;54536;50.090;14.420;2023-04-08T01:43:02;99587.44;;;8.88;60.98
67740;BME280;54536;50.090;14.420;2023-04-08T01:45:29;99581.47;;;8.97;60.62
67740;BME280;54536;50.090;14.420;2023-04-08T01:47:57;99587.69;;;8.96;60.80
67740;BME280;54536;50.090;14.420;2023-04-08T01:50:26;99590.41;;;8.95;60.86
67740;BME280;54536;50.090;14.420;2023-04-08T01:52:56;99595.53;;;8.85;60.51
67740;BME280;54536;50.090;14.420;2023-04-08T01:55:25;99589.69;;;8.93;60.20
67740;BME280;54536;50.090;14.420;2023-04-08T01:57:55;99595.19;;;8.89;60.32
67740;BME280;54536;50.090;14.420;2023-04-08T02:00:28;99589.78;;;9.02;59.71
67740;BME280;54536;50.090;14.420;2023-04-08T02:02:57;99600.03;;;9.05;60.24
67740;BME280;54536;50.090;14.420;2023-04-08T02:05:24;99588.59;;;8.95;60.77
67740;BME280;54536;50.090;14.420;2023-04-08T02:07:50;99584.09;;;8.97;60.52
67740;BME280;54536;50.090;14.420;2023-04-08T02:10:16;99588.59;;;8.95;60.63
67740;BME280;54536;50.090;14.420;2023-04-08T02:12:43;99588.75;;;8.94;61.38
67740;BME280;54536;50.090;14.420;2023-04-08T02:15:12;99592.56;;;8.89;60.63
67740;BME280;54536;50.090;14.420;2023-04-08T02:18:07;99588.75;;;8.94;60.20
67740;BME280;54536;50.090;14.420;2023-04-08T02:20:56;99588.25;;;8.88;61.48
67740;BME280;54536;50.090;14.420;2023-04-08T02:23:27;99588.03;;;8.80;61.39
67740;BME280;54536;50.090;14.420;2023-04-08T02:25:55;99587.66;;;8.85;61.83
67740;BME280;54536;50.090;14.420;2023-04-08T02:28:25;99584.69;;;8.89;60.92
67740;BME280;54536;50.090;14.420;2023-04-08T02:30:52;99587.44;;;8.88;60.49
67740;BME280;54536;50.090;14.420;2023-04-08T02:33:21;99590.44;;;8.83;61.42
67740;BME280;54536;50.090;14.420;2023-04-08T02:35:50;99589.94;;;8.78;61.24
67740;BME280;54536;50.090;14.420;2023-04-08T02:38:19;99592.69;;;8.88;61.06
67740;BME280;54536;50.090;14.420;2023-04-08T02:40:49;99596.63;;;8.94;60.80
67740;BME280;54536;50.090;14.420;2023-04-08T02:43:16;99588.25;;;8.88;61.28
67740;BME280;54536;50.090;14.420;2023-04-08T02:45:43;99592.56;;;8.89;60.38
67740;BME280;54536;50.090;14.420;2023-04-08T02:48:09;99599.69;;;8.99;60.81
67740;BME280;54536;50.090;14.420;2023-04-08T02:50:36;99599.47;;;8.90;60.82
67740;BME280;54536;50.090;14.420;2023-04-08T02:53:02;99600.31;;;8.91;61.10
67740;BME280;54536;50.090;14.420;2023-04-08T02:55:28;99604.59;;;8.92;60.73
67740;BME280;54536;50.090;14.420;2023-04-08T02:57:55;99605.53;;;8.91;61.07
67740;BME280;54536;50.090;14.420;2023-04-08T03:00:21;99603.66;;;8.93;60.29
67740;BME280;54536;50.090;14.420;2023-04-08T03:02:47;99603.19;;;8.77;60.83
67740;BME280;54536;50.090;14.420;2023-04-08T03:05:13;99605.66;;;8.78;60.83
67740;BME280;54536;50.090;14.420;2023-04-08T03:07:41;99606.50;;;8.79;60.90
67740;BME280;54536;50.090;14.420;2023-04-08T03:10:08;99607.69;;;8.86;61.01
67740;BME280;54536;50.090;14.420;2023-04-08T03:12:34;99608.19;;;8.80;61.58
67740;BME280;54536;50.090;14.420;2023-04-08T03:15:00;99607.22;;;8.81;61.18
67740;BME280;54536;50.090;14.420;2023-04-08T03:17:29;99610.69;;;8.81;61.22
67740;BME280;54536;50.090;14.420;2023-04-08T03:19:57;99604.38;;;8.84;61.39
67740;BME280;54536;50.090;14.420;2023-04-08T03:22:23;99608.53;;;8.75;61.67
67740;BME280;54536;50.090;14.420;2023-04-08T03:24:49;99602.09;;;8.79;61.22
67740;BME280;54536;50.090;14.420;2023-04-08T03:27:16;99607.00;;;8.84;60.84
67740;BME280;54536;50.090;14.420;2023-04-08T03:29:42;99611.16;;;8.86;61.14
67740;BME280;54536;50.090;14.420;2023-04-08T03:32:08;99608.78;;;8.83;61.39
67740;BME280;54536;50.090;14.420;2023-04-08T03:34:34;99606.50;;;8.79;62.19
67740;BME280;54536;50.090;14.420;2023-04-08T03:37:00;99605.91;;;8.64;63.15
67740;BME280;54536;50.090;14.420;2023-04-08T03:39:27;99611.41;;;8.61;62.80
67740;BME280;54536;50.090;14.420;2023-04-08T03:41:53;99609.47;;;8.52;63.27
67740;BME280;54536;50.090;14.420;2023-04-08T03:44:19;99609.81;;;8.70;62.90
67740;BME280;54536;50.090;14.420;2023-04-08T03:46:45;99604.84;;;8.66;63.06
67740;BME280;54536;50.090;14.420;2023-04-08T03:49:11;99608.91;;;8.71;62.67
67740;BME280;54536;50.090;14.420;2023-04-08T03:51:38;99608.78;;;8.61;62.80
67740;BME280;54536;50.090;14.420;2023-04-08T03:54:04;99613.88;;;8.62;63.78
67740;BME280;54536;50.090;14.420;2023-04-08T03:56:31;99619.59;;;8.79;62.75
67740;BME280;54536;50.090;14.420;2023-04-08T03:58:57;99618.31;;;8.73;63.44
67740;BME280;54536;50.090;14.420;2023-04-08T04:01:23;99622.09;;;8.69;63.44
67740;BME280;54536;50.090;14.420;2023-04-08T04:03:49;99619.97;;;8.74;62.88
67740;BME280;54536;50.090;14.420;2023-04-08T04:06:15;99627.47;;;8.79;63.24
67740;BME280;54536;50.090;14.420;2023-04-08T04:08:41;99630.69;;;8.82;62.58
67740;BME280;54536;50.090;14.420;2023-04-08T04:11:07;99632.97;;;8.87;62.44
67740;BME280;54536;50.090;14.420;2023-04-08T04:13:34;99639.53;;;8.70;63.24
67740;BME280;54536;50.090;14.420;2023-04-08T04:16:00;99636.31;;;8.78;63.27
67740;BME280;54536;50.090;14.420;2023-04-08T04:18:26;99641.66;;;8.65;63.37
67740;BME280;54536;50.090;14.420;2023-04-08T04:20:52;99634.75;;;8.75;63.15
67740;BME280;54536;50.090;14.420;2023-04-08T04:23:18;99639.28;;;8.84;62.90
67740;BME280;54536;50.090;14.420;2023-04-08T04:25:45;99639.41;;;8.83;62.68
67740;BME280;54536;50.090;14.420;2023-04-08T04:28:11;99641.66;;;8.87;62.75
67740;BME280;54536;50.090;14.420;2023-04-08T04:30:38;99644.66;;;8.83;63.22
67740;BME280;54536;50.090;14.420;2023-04-08T04:33:06;99642.00;;;8.72;63.47
67740;BME280;54536;50.090;14.420;2023-04-08T04:35:32;99643.81;;;8.71;63.75
67740;BME280;54536;50.090;14.420;2023-04-08T04:37:58;99649.50;;;8.76;63.01
67740;BME280;54536;50.090;14.420;2023-04-08T04:40:25;99654.91;;;8.63;63.31
67740;BME280;54536;50.090;14.420;2023-04-08T04:42:51;99656.66;;;8.63;63.82
67740;BME280;54536;50.090;14.420;2023-04-08T04:45:18;99655.13;;;8.60;63.46
67740;BME280;54536;50.090;14.420;2023-04-08T04:47:44;99665.84;;;8.68;63.12
67740;BME280;54536;50.090;14.420;2023-04-08T04:50:10;99669.19;;;8.71;62.76
67740;BME280;54536;50.090;14.420;2023-04-08T04:52:36;99664.06;;;8.80;62.89
67740;BME280;54536;50.090;14.420;2023-04-08T04:55:02;99660.84;;;8.77;63.36
67740;BME280;54536;50.090;14.420;2023-04-08T04:57:28;99669.06;;;8.72;62.69
67740;BME280;54536;50.090;14.420;2023-04-08T04:59:54;99672.28;;;8.76;63.29
67740;BME280;54536;50.090;14.420;2023-04-08T05:02:21;99668.34;;;8.81;62.83
67740;BME280;54536;50.090;14.420;2023-04-08T05:04:47;99674.06;;;8.75;63.54
67740;BME280;54536;50.090;14.420;2023-04-08T05:07:13;99668.25;;;8.83;62.76
67740;BME280;54536;50.090;14.420;2023-04-08T05:09:39;99672.41;;;8.74;63.67
67740;BME280;54536;50.090;14.420;2023-04-08T05:12:05;99667.66;;;8.90;62.24
67740;BME280;54536;50.090;14.420;2023-04-08T05:14:32;99680.63;;;8.81;62.79
67740;BME280;54536;50.090;14.420;2023-04-08T05:16:58;99687.78;;;8.79;62.93
67740;BME280;54536;50.090;14.420;2023-04-08T05:19:24;99684.91;;;8.82;63.01
67740;BME280;54536;50.090;14.420;2023-04-08T05:21:50;99685.38;;;8.76;63.33
67740;BME280;54536;50.090;14.420;2023-04-08T05:24:17;99686.47;;;8.84;62.58
67740;BME280;54536;50.090;14.420;2023-04-08T05:26:43;99688.72;;;8.89;62.72
67740;BME280;54536;50.090;14.420;2023-04-08T05:29:09;99694.47;;;8.83;62.61
67740;BME280;54536;50.090;14.420;2023-04-08T05:31:35;99696.59;;;8.89;62.10
67740;BME280;54536;50.090;14.420;2023-04-08T05:34:02;99691.50;;;8.87;62.19
67740;BME280;54536;50.090;14.420;2023-04-08T05:36:28;99698.41;;;8.88;62.09
67740;BME280;54536;50.090;14.420;2023-04-08T05:38:54;99697.47;;;8.89;62.07
67740;BME280;54536;50.090;14.420;2023-04-08T05:41:20;99698.53;;;8.87;62.59
67740;BME280;54536;50.090;14.420;2023-04-08T05:43:47;99698.88;;;8.94;62.47
67740;BME280;54536;50.090;14.420;2023-04-08T05:46:13;99705.34;;;8.89;62.88
67740;BME280;54536;50.090;14.420;2023-04-08T05:48:39;99701.75;;;8.90;62.95
67740;BME280;54536;50.090;14.420;2023-04-08T05:51:05;99702.44;;;8.93;62.39
67740;BME280;54536;50.090;14.420;2023-04-08T05:53:31;99706.75;;;8.94;62.63
67740;BME280;54536;50.090;14.420;2023-04-08T05:55:57;99708.16;;;8.75;62.94
67740;BME280;54536;50.090;14.420;2023-04-08T05:58:24;99709.25;;;8.84;62.53
67740;BME280;54536;50.090;14.420;2023-04-08T06:00:50;99712.69;;;8.73;63.28
67740;BME280;54536;50.090;14.420;2023-04-08T06:03:16;99718.41;;;8.78;63.09
67740;BME280;54536;50.090;14.420;2023-04-08T06:05:42;99719.50;;;8.87;63.18
67740;BME280;54536;50.090;14.420;2023-04-08T06:08:08;99720.81;;;8.93;63.08
67740;BME280;54536;50.090;14.420;2023-04-08T06:10:34;99714.84;;;8.90;63.08
67740;BME280;54536;50.090;14.420;2023-04-08T06:13:00;99716.75;;;8.88;62.63
67740;BME280;54536;50.090;14.420;2023-04-08T06:15:26;99718.44;;;8.89;62.46
67740;BME280;54536;50.090;14.420;2023-04-08T06:17:53;99719.59;;;8.74;64.09
67740;BME280;54536;50.090;14.420;2023-04-08T06:20:18;99719.28;;;8.90;63.72
67740;BME280;54536;50.090;14.420;2023-04-08T06:22:45;99720.09;;;8.90;65.33
67740;BME280;54536;50.090;14.420;2023-04-08T06:25:11;99724.66;;;9.00;65.01
67740;BME280;54536;50.090;14.420;2023-04-08T06:27:37;99726.41;;;8.88;65.27
67740;BME280;54536;50.090;14.420;2023-04-08T06:30:03;99720.94;;;8.91;64.43
67740;BME280;54536;50.090;14.420;2023-04-08T06:32:30;99733.44;;;8.99;64.68
67740;BME280;54536;50.090;14.420;2023-04-08T06:34:56;99731.44;;;8.91;64.34
67740;BME280;54536;50.090;14.420;2023-04-08T06:37:22;99729.41;;;8.95;65.30
67740;BME280;54536;50.090;14.420;2023-04-08T06:39:49;99729.06;;;8.99;64.28
67740;BME280;54536;50.090;14.420;2023-04-08T06:42:15;99731.56;;;8.89;64.22
67740;BME280;54536;50.090;14.420;2023-04-08T06:44:41;99736.81;;;8.89;64.08
67740;BME280;54536;50.090;14.420;2023-04-08T06:47:07;99743.88;;;8.65;65.17
67740;BME280;54536;50.090;14.420;2023-04-08T06:49:33;99752.28;;;8.81;64.94
67740;BME280;54536;50.090;14.420;2023-04-08T06:51:59;99747.38;;;8.88;64.33
67740;BME280;54536;50.090;14.420;2023-04-08T06:54:26;99747.84;;;8.82;64.53
67740;BME280;54536;50.090;14.420;2023-04-08T06:56:52;99751.91;;;8.86;65.07
67740;BME280;54536;50.090;14.420;2023-04-08T06:59:18;99757.41;;;8.83;65.00
67740;BME280;54536;50.090;14.420;2023-04-08T07:01:45;99762.66;;;8.83;64.67
67740;BME280;54536;50.090;14.420;2023-04-08T07:04:11;99757.75;;;8.78;65.52
67740;BME280;54536;50.090;14.420;2023-04-08T07:06:37;99758.72;;;8.88;64.63
67740;BME280;54536;50.090;14.420;2023-04-08T07:09:04;99761.69;;;8.95;65.63
67740;BME280;54536;50.090;14.420;2023-04-08T07:11:30;99768.28;;;8.89;63.78
67740;BME280;54536;50.090;14.420;2023-04-08T07:13:56;99768.88;;;9.04;63.59
67740;BME280;54536;50.090;14.420;2023-04-08T07:16:22;99772.56;;;8.90;63.81
67740;BME280;54536;50.090;14.420;2023-04-08T07:18:48;99766.25;;;9.04;63.15
67740;BME280;54536;50.090;14.420;2023-04-08T07:21:16;99768.41;;;8.99;63.75
67740;BME280;54536;50.090;14.420;2023-04-08T07:23:42;99781.44;;;9.23;63.48
67740;BME280;54536;50.090;14.420;2023-04-08T07:26:09;99786.56;;;9.36;62.75
67740;BME280;54536;50.090;14.420;2023-04-08T07:28:35;99787.63;;;9.33;62.81
67740;BME280;54536;50.090;14.420;2023-04-08T07:31:15;99788.81;;;9.41;63.14
67740;BME280;54536;50.090;14.420;2023-04-08T07:33:43;99793.50;;;9.48;62.45
67740;BME280;54536;50.090;14.420;2023-04-08T07:36:11;99785.97;;;9.44;63.16
67740;BME280;54536;50.090;14.420;2023-04-08T07:38:38;99794.19;;;9.50;61.78
67740;BME280;54536;50.090;14.420;2023-04-08T07:41:04;99794.31;;;9.60;62.03
67740;BME280;54536;50.090;14.420;2023-04-08T07:43:31;99793.00;;;9.54;61.75
67740;BME280;54536;50.090;14.420;2023-04-08T07:46:00;99805.63;;;9.60;61.18
67740;BME280;54536;50.090;14.420;2023-04-08T07:48:28;99804.81;;;9.49;61.55
67740;BME280;54536;50.090;14.420;2023-04-08T07:50:55;99804.59;;;9.52;61.04
67740;BME280;54536;50.090;14.420;2023-04-08T07:53:22;99803.50;;;9.66;60.81
67740;BME280;54536;50.090;14.420;2023-04-08T07:55:49;99810.28;;;9.57;61.07
67740;BME280;54536;50.090;14.420;2023-04-08T07:58:15;99816.03;;;9.73;60.52
67740;BME280;54536;50.090;14.420;2023-04-08T08:00:42;99821.50;;;9.70;60.67
67740;BME280;54536;50.090;14.420;2023-04-08T08:03:08;99816.38;;;9.80;60.29
67740;BME280;54536;50.090;14.420;2023-04-08T08:05:35;99815.06;;;9.74;59.86
67740;BME280;54536;50.090;14.420;2023-04-08T08:08:02;99819.25;;;9.88;59.84
67740;BME280;54536;50.090;14.420;2023-04-08T08:10:29;99822.09;;;9.85;60.21
67740;BME280;54536;50.090;14.420;2023-04-08T08:12:55;99833.44;;;9.74;59.96
67740;BME280;54536;50.090;14.420;2023-04-08T08:15:21;99837.84;;;9.74;60.52
67740;BME280;54536;50.090;14.420;2023-04-08T08:17:47;99833.66;;;9.94;59.97
67740;BME280;54536;50.090;14.420;2023-04-08T08:20:13;99835.34;;;9.95;60.28
67740;BME280;54536;50.090;14.420;2023-04-08T08:22:40;99844.91;;;9.96;60.10
67740;BME280;54536;50.090;14.420;2023-04-08T08:25:06;99835.69;;;9.90;59.58
67740;BME280;54536;50.090;14.420;2023-04-08T08:27:34;99842.66;;;9.91;60.41
67740;BME280;54536;50.090;14.420;2023-04-08T08:30:02;99846.06;;;10.03;59.68
67740;BME280;54536;50.090;14.420;2023-04-08T08:32:28;99853.38;;;9.88;59.84
67740;BME280;54536;50.090;14.420;2023-04-08T08:34:55;99856.00;;;9.88;60.15
67740;BME280;54536;50.090;14.420;2023-04-08T08:37:21;99850.63;;;10.01;59.96
67740;BME280;54536;50.090;14.420;2023-04-08T08:39:47;99856.81;;;10.00;59.86
67740;BME280;54536;50.090;14.420;2023-04-08T08:42:23;99862.91;;;10.00;59.93
67740;BME280;54536;50.090;14.420;2023-04-08T08:44:50;99854.19;;;10.11;59.82
67740;BME280;54536;50.090;14.420;2023-04-08T08:47:16;99866.88;;;9.95;59.24
67740;BME280;54536;50.090;14.420;2023-04-08T08:49:43;99867.91;;;10.03;59.76
67740;BME280;54536;50.090;14.420;2023-04-08T08:52:15;99884.78;;;10.01;59.58
67740;BME280;54536;50.090;14.420;2023-04-08T08:54:43;99871.91;;;9.98;59.65
67740;BME280;54536;50.090;14.420;2023-04-08T08:57:17;99884.53;;;9.93;59.57
67740;BME280;54536;50.090;14.420;2023-04-08T08:59:45;99883.44;;;10.06;59.36
67740;BME280;54536;50.090;14.420;2023-04-08T09:02:31;99893.47;;;9.90;59.60
67740;BME280;54536;50.090;14.420;2023-04-08T09:04:58;99889.19;;;10.00;60.09
67740;BME280;54536;50.090;14.420;2023-04-08T09:07:26;99896.72;;;10.05;59.22
67740;BME280;54536;50.090;14.420;2023-04-08T09:09:54;99894.44;;;9.89;59.73
67740;BME280;54536;50.090;14.420;2023-04-08T09:12:21;99899.22;;;9.95;59.94
67740;BME280;54536;50.090;14.420;2023-04-08T09:14:48;99901.25;;;10.03;59.75
67740;BME280;54536;50.090;14.420;2023-04-08T09:17:14;99899.22;;;10.06;59.83
67740;BME280;54536;50.090;14.420;2023-04-08T09:20:07;99907.78;;;10.20;58.74
67740;BME280;54536;50.090;14.420;2023-04-08T09:23:02;99900.66;;;10.11;58.99
67740;BME280;54536;50.090;14.420;2023-04-08T09:25:33;99909.88;;;10.27;58.12
67740;BME280;54536;50.090;14.420;2023-04-08T09:27:59;99908.78;;;10.41;58.59
67740;BME280;54536;50.090;14.420;2023-04-08T09:30:27;99911.34;;;10.64;58.08
67740;BME280;54536;50.090;14.420;2023-04-08T09:32:55;99913.75;;;10.55;56.96
67740;BME280;54536;50.090;14.420;2023-04-08T09:35:23;99912.56;;;10.48;57.97
67740;BME280;54536;50.090;14.420;2023-04-08T09:37:50;99910.53;;;10.63;56.38
67740;BME280;54536;50.090;14.420;2023-04-08T09:40:17;99911.94;;;10.67;56.17
67740;BME280;54536;50.090;14.420;2023-04-08T09:42:46;99910.94;;;10.80;55.36
67740;BME280;54536;50.090;14.420;2023-04-08T09:45:15;99905.69;;;10.80;55.78
67740;BME280;54536;50.090;14.420;2023-04-08T09:47:56;99911.63;;;10.82;55.37
67740;BME280;54536;50.090;14.420;2023-04-08T09:50:41;99914.75;;;10.75;56.16
67740;BME280;54536;50.090;14.420;2023-04-08T09:53:34;99911.72;;;10.91;55.18
67740;BME280;54536;50.090;14.420;2023-04-08T09:56:06;99913.34;;;11.04;54.43
67740;BME280;54536;50.090;14.420;2023-04-08T09:58:51;99907.59;;;11.10;54.51
67740;BME280;54536;50.090;14.420;2023-04-08T10:01:23;99912.34;;;11.16;53.96
67740;BME280;54536;50.090;14.420;2023-04-08T10:03:54;99913.50;;;11.02;54.51
67740;BME280;54536;50.090;14.420;2023-04-08T10:06:27;99918.19;;;11.19;54.32
67740;BME280;54536;50.090;14.420;2023-04-08T10:08:55;99917.09;;;11.22;54.04
67740;BME280;54536;50.090;14.420;2023-04-08T10:11:22;99919.47;;;11.25;53.83
67740;BME280;54536;50.090;14.420;2023-04-08T10:13:49;99922.81;;;11.06;54.01
67740;BME280;54536;50.090;14.420;2023-04-08T10:18:47;99922.94;;;11.25;52.83
67740;BME280;54536;50.090;14.420;2023-04-08T10:21:35;99917.72;;;11.14;53.21
67740;BME280;54536;50.090;14.420;2023-04-08T10:24:08;99915.22;;;11.34;52.73
67740;BME280;54536;50.090;14.420;2023-04-08T10:26:42;99909.13;;;11.33;52.11
67740;BME280;54536;50.090;14.420;2023-04-08T10:31:45;99919.06;;;11.51;51.66
67740;BME280;54536;50.090;14.420;2023-04-08T10:34:16;99917.31;;;11.51;52.26
67740;BME280;54536;50.090;14.420;2023-04-08T10:36:44;99927.91;;;11.61;52.01
67740;BME280;54536;50.090;14.420;2023-04-08T10:39:14;99930.31;;;11.73;52.18
67740;BME280;54536;50.090;14.420;2023-04-08T10:41:44;99925.63;;;11.77;50.78
67740;BME280;54536;50.090;14.420;2023-04-08T10:44:19;99927.34;;;11.67;51.82
67740;BME280;54536;50.090;14.420;2023-04-08T10:46:46;99929.47;;;11.73;51.08
67740;BME280;54536;50.090;14.420;2023-04-08T10:49:14;99927.56;;;11.54;50.65
67740;BME280;54536;50.090;14.420;2023-04-08T10:51:43;99929.03;;;11.47;51.03
67740;BME280;54536;50.090;14.420;2023-04-08T10:54:15;99925.97;;;11.42;52.09
67740;BME280;54536;50.090;14.420;2023-04-08T10:56:48;99930.84;;;11.46;51.30
67740;BME280;54536;50.090;14.420;2023-04-08T10:59:26;99932.31;;;11.39;51.47
67740;BME280;54536;50.090;14.420;2023-04-08T11:01:52;99938.69;;;11.58;51.38
67740;BME280;54536;50.090;14.420;2023-04-08T11:04:18;99943.56;;;11.62;51.34
67740;BME280;54536;50.090;14.420;2023-04-08T11:06:45;99940.88;;;11.53;51.76
67740;BME280;54536;50.090;14.420;2023-04-08T11:09:14;99934.63;;;11.54;51.51
67740;BME280;54536;50.090;14.420;2023-04-08T11:11:42;99941.75;;;11.63;51.44
67740;BME280;54536;50.090;14.420;2023-04-08T11:14:09;99933.94;;;11.52;51.64
67740;BME280;54536;50.090;14.420;2023-04-08T11:16:37;99938.09;;;11.54;51.62
67740;BME280;54536;50.090;14.420;2023-04-08T11:19:05;99936.69;;;11.50;51.38
67740;BME280;54536;50.090;14.420;2023-04-08T11:21:34;99939.78;;;11.55;50.88
67740;BME280;54536;50.090;14.420;2023-04-08T11:24:06;99933.16;;;11.61;50.81
67740;BME280;54536;50.090;14.420;2023-04-08T11:26:32;99939.44;;;11.69;49.99
67740;BME280;54536;50.090;14.420;2023-04-08T11:28:59;99942.97;;;11.59;50.40
67740;BME280;54536;50.090;14.420;2023-04-08T11:31:26;99948.78;;;11.83;49.79
67740;BME280;54536;50.090;14.420;2023-04-08T11:33:54;99953.63;;;11.57;49.86
67740;BME280;54536;50.090;14.420;2023-04-08T11:36:21;99955.38;;;11.68;50.89
67740;BME280;54536;50.090;14.420;2023-04-08T11:38:47;99953.25;;;11.83;49.70
67740;BME280;54536;50.090;14.420;2023-04-08T11:41:14;99952.75;;;11.89;50.08
67740;BME280;54536;50.090;14.420;2023-04-08T11:43:54;99947.78;;;11.54;50.80
67740;BME280;54536;50.090;14.420;2023-04-08T11:46:21;99945.66;;;11.47;50.97
67740;BME280;54536;50.090;14.420;2023-04-08T11:49:02;99949.47;;;11.55;51.26
67740;BME280;54536;50.090;14.420;2023-04-08T11:51:29;99955.56;;;11.76;50.87
67740;BME280;54536;50.090;14.420;2023-04-08T11:53:55;99950.69;;;11.71;51.09
67740;BME280;54536;50.090;14.420;2023-04-08T11:56:22;99950.63;;;11.62;50.42
67740;BME280;54536;50.090;14.420;2023-04-08T11:58:50;99954.56;;;11.67;50.85
67740;BME280;54536;50.090;14.420;2023-04-08T12:01:17;99955.03;;;11.82;50.42
67740;BME280;54536;50.090;14.420;2023-04-08T12:03:57;99954.06;;;11.83;50.26
67740;BME280;54536;50.090;14.420;2023-04-08T12:06:23;99957.09;;;11.79;50.37
67740;BME280;54536;50.090;14.420;2023-04-08T12:08:49;99949.81;;;11.61;50.17
67740;BME280;54536;50.090;14.420;2023-04-08T12:11:15;99951.78;;;11.69;50.07
67740;BME280;54536;50.090;14.420;2023-04-08T12:13:42;99946.38;;;11.70;49.75
67740;BME280;54536;50.090;14.420;2023-04-08T12:16:08;99955.81;;;11.73;49.29
67740;BME280;54536;50.090;14.420;2023-04-08T12:18:34;99947.47;;;11.68;49.27
67740;BME280;54536;50.090;14.420;2023-04-08T12:20:59;99951.22;;;11.65;50.10
67740;BME280;54536;50.090;14.420;2023-04-08T12:23:25;99953.13;;;11.63;50.27
67740;BME280;54536;50.090;14.420;2023-04-08T12:25:51;99961.09;;;11.52;49.98
67740;BME280;54536;50.090;14.420;2023-04-08T12:28:18;99963.44;;;11.34;51.03
67740;BME280;54536;50.090;14.420;2023-04-08T12:30:43;99967.88;;;11.34;51.51
67740;BME280;54536;50.090;14.420;2023-04-08T12:33:09;99969.19;;;11.39;51.50
67740;BME280;54536;50.090;14.420;2023-04-08T12:35:35;99973.16;;;11.34;51.31
67740;BME280;54536;50.090;14.420;2023-04-08T12:38:02;99977.00;;;11.51;51.42
67740;BME280;54536;50.090;14.420;2023-04-08T12:40:28;99977.19;;;11.38;51.40
67740;BME280;54536;50.090;14.420;2023-04-08T12:42:54;99979.31;;;11.44;51.42
67740;BME280;54536;50.090;14.420;2023-04-08T12:45:20;99979.25;;;11.34;51.61
67740;BME280;54536;50.090;14.420;2023-04-08T12:47:46;99972.91;;;11.37;52.42
67740;BME280;54536;50.090;14.420;2023-04-08T12:50:12;99978.88;;;11.39;52.27
67740;BME280;54536;50.090;14.420;2023-04-08T12:52:38;99982.44;;;11.49;52.09
67740;BME280;54536;50.090;14.420;2023-04-08T12:55:04;99976.84;;;11.42;51.96
67740;BME280;54536;50.090;14.420;2023-04-08T12:57:31;99981.97;;;11.44;51.43
67740;BME280;54536;50.090;14.420;2023-04-08T12:59:57;99979.97;;;11.57;52.07
67740;BME280;54536;50.090;14.420;2023-04-08T13:02:23;99977.47;;;11.56;51.73
67740;BME280;54536;50.090;14.420;2023-04-08T13:04:51;99977.75;;;11.53;51.38
67740;BME280;54536;50.090;14.420;2023-04-08T13:07:18;99970.03;;;11.61;51.60
67740;BME280;54536;50.090;14.420;2023-04-08T13:09:44;99974.81;;;11.88;50.89